Time;durP1;ratioP1;P1;durP2;ratioP2;P2;SDS_P1;SDS_P2;PMS_P1;PMS_P2;Temp;Humidity;BMP_temperature;BMP_pressure;BME280_temperature;BME280_humidity;BME280_pressure;Samples;Min_cycle;Max_cycle;Signal;HPM_P1;HPM_P2
2023/04/19 00:01:23;;;;;;;53.80;25.40;;;8.90;99.90;;;;;;5001025;28;20038;-51
2023/04/19 00:03:49;;;;;;;53.17;27.85;;;8.90;99.90;;;;;;4994427;28;20117;-53
2023/04/19 00:06:15;;;;;;;48.90;27.05;;;8.80;99.90;;;;;;4994469;28;20121;-47
2023/04/19 00:08:41;;;;;;;50.70;27.10;;;8.80;99.90;;;;;;4999436;28;20041;-51
2023/04/19 00:11:08;;;;;;;50.90;27.23;;;8.80;99.90;;;;;;5011313;28;20029;-54
2023/04/19 00:13:34;;;;;;;54.20;27.50;;;8.80;99.90;;;;;;5011098;28;20022;-48
2023/04/19 00:15:59;;;;;;;59.20;28.35;;;8.80;99.90;;;;;;5010861;28;20037;-48
2023/04/19 00:18:25;;;;;;;54.85;26.50;;;8.80;99.90;;;;;;5010660;28;20030;-47
2023/04/19 00:20:51;;;;;;;51.78;28.10;;;8.80;99.90;;;;;;5011229;28;20030;-53
2023/04/19 00:23:17;;;;;;;53.30;29.30;;;8.70;99.90;;;;;;5010896;28;20021;-49
2023/04/19 00:25:45;;;;;;;56.67;31.23;;;8.70;99.90;;;;;;5011024;28;20041;-47
2023/04/19 00:28:10;;;;;;;59.03;29.13;;;8.80;99.90;;;;;;5010937;28;20026;-50
2023/04/19 00:30:36;;;;;;;56.70;29.25;;;8.70;99.90;;;;;;5010946;28;20388;-50
2023/04/19 00:33:01;;;;;;;50.03;27.95;;;8.70;99.90;;;;;;5010921;28;20366;-49
2023/04/19 00:35:27;;;;;;;53.90;28.02;;;8.70;99.90;;;;;;5010769;28;20445;-48
2023/04/19 00:37:53;;;;;;;55.20;30.20;;;8.70;99.90;;;;;;5010002;28;20022;-46
2023/04/19 00:40:18;;;;;;;55.97;29.75;;;8.70;99.90;;;;;;5009219;28;20068;-48
2023/04/19 00:42:44;;;;;;;58.70;30.42;;;8.70;99.90;;;;;;5010639;28;20536;-53
2023/04/19 00:45:11;;;;;;;55.50;29.23;;;8.70;99.90;;;;;;5010656;28;20092;-47
2023/04/19 00:47:37;;;;;;;59.97;29.05;;;8.70;99.90;;;;;;5013169;28;20026;-46
2023/04/19 00:50:04;;;;;;;52.25;29.08;;;8.60;99.90;;;;;;5010657;28;20053;-48
2023/04/19 00:52:32;;;;;;;58.55;30.27;;;8.60;99.90;;;;;;5010906;28;20046;-50
2023/04/19 00:54:58;;;;;;;58.10;28.35;;;8.70;99.90;;;;;;5009434;28;20022;-49
2023/04/19 00:57:24;;;;;;;49.50;28.80;;;8.70;99.90;;;;;;5010369;28;20033;-46
2023/04/19 00:59:50;;;;;;;60.97;31.60;;;8.60;99.90;;;;;;5012702;28;20046;-47
2023/04/19 01:02:16;;;;;;;65.82;31.23;;;8.60;99.90;;;;;;5010733;28;20461;-51
2023/04/19 01:04:43;;;;;;;58.20;30.52;;;8.70;99.90;;;;;;5011618;28;20499;-46
2023/04/19 01:07:09;;;;;;;57.45;29.90;;;8.70;99.90;;;;;;5014494;28;20018;-47
2023/04/19 01:09:38;;;;;;;62.83;31.52;;;8.70;99.90;;;;;;5014596;28;20107;-46
2023/04/19 01:12:04;;;;;;;57.13;29.92;;;8.70;99.90;;;;;;5014136;28;20148;-46
2023/04/19 01:14:29;;;;;;;54.38;29.95;;;8.80;99.90;;;;;;5011666;28;20124;-46
2023/04/19 01:16:56;;;;;;;61.78;30.63;;;8.80;99.90;;;;;;5014218;28;20113;-46
2023/04/19 01:19:22;;;;;;;56.65;29.63;;;8.80;99.90;;;;;;5014501;28;20491;-46
2023/04/19 01:21:47;;;;;;;56.80;30.10;;;8.80;99.90;;;;;;5014563;28;20481;-46
2023/04/19 01:24:13;;;;;;;57.13;29.63;;;8.80;99.90;;;;;;5014524;28;20124;-50
2023/04/19 01:26:39;;;;;;;56.05;31.42;;;8.90;99.90;;;;;;5014346;28;20042;-52
2023/04/19 01:29:04;;;;;;;54.75;29.70;;;8.90;99.90;;;;;;5014011;28;20032;-47
2023/04/19 01:31:30;;;;;;;55.58;29.05;;;8.90;99.90;;;;;;5000688;28;20026;-47
2023/04/19 01:33:56;;;;;;;52.25;28.17;;;9.00;99.90;;;;;;5014329;28;20038;-49
2023/04/19 01:36:21;;;;;;;58.58;29.50;;;9.00;99.90;;;;;;5012955;28;20221;-46
2023/04/19 01:38:48;;;;;;;47.33;28.27;;;9.10;99.90;;;;;;5013983;28;20022;-50
2023/04/19 01:41:14;;;;;;;52.55;29.55;;;9.10;99.90;;;;;;5011918;28;20078;-47
2023/04/19 01:43:39;;;;;;;50.25;28.83;;;9.10;99.90;;;;;;5008469;28;20436;-46
2023/04/19 01:46:05;;;;;;;49.35;28.45;;;9.20;99.90;;;;;;5013911;28;20112;-47
2023/04/19 01:48:31;;;;;;;46.63;27.98;;;9.20;99.90;;;;;;5013522;28;20048;-47
2023/04/19 01:50:56;;;;;;;52.20;30.15;;;9.20;99.90;;;;;;5014091;28;20075;-52
2023/04/19 01:53:22;;;;;;;54.60;28.80;;;9.20;99.90;;;;;;5013611;28;20050;-54
2023/04/19 01:55:49;;;;;;;52.00;29.02;;;9.20;99.90;;;;;;5013531;28;20025;-48
2023/04/19 01:58:14;;;;;;;52.97;29.05;;;9.30;99.90;;;;;;5013259;28;20575;-48
2023/04/19 02:00:40;;;;;;;50.72;29.17;;;9.30;99.90;;;;;;5013742;28;20022;-51
2023/04/19 02:03:05;;;;;;;48.05;28.58;;;9.40;99.90;;;;;;5014068;28;20036;-47
2023/04/19 02:05:31;;;;;;;52.95;28.90;;;9.40;99.90;;;;;;5013496;28;20053;-52
2023/04/19 02:07:57;;;;;;;52.05;29.80;;;9.40;99.90;;;;;;5012209;28;20018;-50
2023/04/19 02:10:22;;;;;;;53.85;29.90;;;9.50;99.90;;;;;;5013162;28;20060;-46
2023/04/19 02:12:48;;;;;;;50.70;29.27;;;9.50;99.90;;;;;;5013321;28;20388;-50
2023/04/19 02:15:14;;;;;;;53.45;30.02;;;9.50;99.90;;;;;;5013262;28;20080;-52
2023/04/19 02:17:39;;;;;;;50.03;29.33;;;9.60;99.90;;;;;;5012440;28;20021;-49
2023/04/19 02:20:07;;;;;;;47.35;28.40;;;9.60;99.90;;;;;;5013567;28;20029;-47
2023/04/19 02:22:33;;;;;;;45.25;28.02;;;9.60;99.90;;;;;;5013296;28;20018;-49
2023/04/19 02:24:58;;;;;;;53.08;30.02;;;9.60;99.90;;;;;;5013298;28;20064;-48
2023/04/19 02:27:24;;;;;;;50.80;29.17;;;9.60;99.90;;;;;;5012584;28;20377;-48
2023/04/19 02:29:50;;;;;;;49.55;28.67;;;9.60;99.90;;;;;;5013121;28;20026;-46
2023/04/19 02:32:16;;;;;;;45.45;28.30;;;9.60;99.90;;;;;;5013099;28;20030;-47
2023/04/19 02:34:41;;;;;;;54.78;29.92;;;9.60;99.90;;;;;;5013270;28;20029;-47
2023/04/19 02:37:07;;;;;;;52.97;28.77;;;9.60;99.90;;;;;;5013023;28;20243;-47
2023/04/19 02:39:33;;;;;;;52.03;29.80;;;9.60;99.90;;;;;;5012786;28;20038;-51
2023/04/19 02:41:59;;;;;;;52.78;29.33;;;9.60;99.90;;;;;;5012736;28;20037;-49
2023/04/19 02:44:26;;;;;;;54.67;30.75;;;9.50;99.90;;;;;;5012936;28;21777;-46
2023/04/19 02:46:52;;;;;;;49.97;29.08;;;9.60;99.90;;;;;;5012978;28;20014;-51
2023/04/19 02:49:19;;;;;;;53.25;27.83;;;9.60;99.90;;;;;;5012579;28;20401;-50
2023/04/19 02:51:45;;;;;;;54.22;30.10;;;9.60;99.90;;;;;;5012893;28;20018;-51
2023/04/19 02:54:11;;;;;;;54.28;29.85;;;9.60;99.90;;;;;;5012757;28;20049;-50
2023/04/19 02:56:36;;;;;;;46.22;29.02;;;9.70;99.90;;;;;;5012496;28;20041;-46
2023/04/19 02:59:03;;;;;;;48.75;30.10;;;9.70;99.90;;;;;;5012470;28;20049;-46
2023/04/19 03:01:29;;;;;;;47.35;28.58;;;9.70;99.90;;;;;;5012653;28;20473;-56
2023/04/19 03:03:55;;;;;;;57.17;30.85;;;9.70;99.90;;;;;;5012477;28;20122;-49
2023/04/19 03:06:20;;;;;;;52.15;30.33;;;9.60;99.90;;;;;;5012466;28;20034;-53
2023/04/19 03:08:46;;;;;;;50.42;29.65;;;9.70;99.90;;;;;;5011934;28;20045;-53
2023/04/19 03:11:13;;;;;;;54.55;30.52;;;9.60;99.90;;;;;;5012460;28;20380;-46
2023/04/19 03:13:39;;;;;;;51.35;31.50;;;9.60;99.90;;;;;;5012316;28;20014;-47
2023/04/19 03:16:05;;;;;;;56.08;30.80;;;9.60;99.90;;;;;;5012311;28;20445;-49
2023/04/19 03:18:31;;;;;;;55.80;30.52;;;9.60;99.90;;;;;;5026873;28;20072;-46
2023/04/19 03:20:57;;;;;;;61.47;32.50;;;9.60;99.90;;;;;;5012072;28;20030;-50
2023/04/19 03:23:22;;;;;;;51.90;31.63;;;9.60;99.90;;;;;;5012234;28;20032;-49
2023/04/19 03:25:48;;;;;;;53.17;33.38;;;9.60;99.90;;;;;;5011841;28;20030;-48
2023/04/19 03:28:14;;;;;;;58.20;33.53;;;9.60;99.90;;;;;;5011775;28;20026;-46
2023/04/19 03:30:39;;;;;;;53.13;31.20;;;9.60;99.90;;;;;;5012042;28;20030;-51
2023/04/19 03:33:05;;;;;;;53.42;32.35;;;9.60;99.90;;;;;;5012084;28;20026;-49
2023/04/19 03:35:31;;;;;;;56.85;32.10;;;9.60;99.90;;;;;;5012013;28;20026;-47
2023/04/19 03:37:57;;;;;;;54.88;32.15;;;9.60;99.90;;;;;;5011692;28;20014;-49
2023/04/19 03:40:22;;;;;;;51.80;30.60;;;9.60;99.90;;;;;;5011344;28;20040;-46
2023/04/19 03:42:48;;;;;;;56.22;31.88;;;9.60;99.90;;;;;;5011258;28;20014;-49
2023/04/19 03:45:14;;;;;;;58.15;32.05;;;9.60;99.90;;;;;;5011507;28;20069;-46
2023/04/19 03:47:39;;;;;;;53.67;31.45;;;9.60;99.90;;;;;;5011382;28;20049;-47
2023/04/19 03:50:05;;;;;;;57.40;32.22;;;9.60;99.90;;;;;;5011800;28;20079;-50
2023/04/19 03:52:31;;;;;;;56.90;31.48;;;9.60;99.90;;;;;;5011716;28;20022;-46
2023/04/19 03:54:57;;;;;;;55.28;32.38;;;9.60;99.90;;;;;;5011492;28;20037;-50
2023/04/19 03:57:22;;;;;;;53.78;31.70;;;9.70;99.90;;;;;;5010224;28;20057;-51
2023/04/19 03:59:48;;;;;;;49.63;30.60;;;9.60;99.90;;;;;;5011166;28;20140;-48
2023/04/19 04:02:14;;;;;;;52.90;31.55;;;9.60;99.90;;;;;;5010168;28;20025;-50
2023/04/19 04:04:39;;;;;;;52.13;31.65;;;9.60;99.90;;;;;;5010254;28;20042;-46
2023/04/19 04:07:05;;;;;;;61.08;33.35;;;9.60;99.90;;;;;;5011464;28;20033;-47
2023/04/19 04:09:30;;;;;;;54.03;30.80;;;9.50;99.90;;;;;;5011341;28;20022;-52
2023/04/19 04:11:56;;;;;;;55.95;34.20;;;9.50;99.90;;;;;;5011074;28;20447;-51
2023/04/19 04:14:23;;;;;;;51.67;31.88;;;9.50;99.90;;;;;;5011538;28;20022;-50
2023/04/19 04:16:48;;;;;;;54.53;32.05;;;9.50;99.90;;;;;;5026506;28;20024;-47
2023/04/19 04:19:14;;;;;;;51.38;31.63;;;9.50;99.90;;;;;;5011152;28;20026;-45
2023/04/19 04:21:40;;;;;;;57.75;31.85;;;9.50;99.90;;;;;;5011179;28;20014;-47
2023/04/19 04:24:06;;;;;;;53.05;31.70;;;9.50;99.90;;;;;;5011079;28;20077;-48
2023/04/19 04:26:32;;;;;;;57.22;32.13;;;9.50;99.90;;;;;;5026223;28;20022;-46
2023/04/19 04:29:00;;;;;;;54.42;30.73;;;9.50;99.90;;;;;;5011155;28;20100;-47
2023/04/19 04:31:27;;;;;;;53.28;29.58;;;9.50;99.90;;;;;;5011263;28;20109;-47
2023/04/19 04:33:54;;;;;;;52.70;30.67;;;9.50;99.90;;;;;;5011233;28;20112;-46
2023/04/19 04:36:20;;;;;;;54.00;31.38;;;9.50;99.90;;;;;;5011206;28;20018;-44
2023/04/19 04:38:45;;;;;;;54.08;30.80;;;9.60;99.90;;;;;;5010567;28;20041;-55
2023/04/19 04:41:11;;;;;;;59.28;31.23;;;9.60;99.90;;;;;;5010694;28;20022;-47
2023/04/19 04:43:38;;;;;;;46.92;29.30;;;9.60;99.90;;;;;;5010971;28;20460;-52
2023/04/19 04:46:04;;;;;;;52.38;29.10;;;9.60;99.90;;;;;;5010867;28;20029;-52
2023/04/19 04:48:30;;;;;;;54.30;30.50;;;9.60;99.90;;;;;;5010662;28;20022;-53
2023/04/19 04:50:56;;;;;;;47.03;29.92;;;9.60;99.90;;;;;;5010783;28;20022;-50
2023/04/19 04:53:24;;;;;;;51.88;29.75;;;9.60;99.90;;;;;;5010854;28;20072;-48
2023/04/19 04:55:51;;;;;;;47.42;29.63;;;9.60;99.90;;;;;;5010757;28;20032;-52
2023/04/19 04:58:16;;;;;;;52.88;29.73;;;9.60;99.90;;;;;;5010394;28;20038;-46
2023/04/19 05:00:42;;;;;;;48.65;28.70;;;9.60;99.90;;;;;;5010906;28;20022;-48
2023/04/19 05:03:08;;;;;;;50.55;30.42;;;9.60;99.90;;;;;;5010674;28;20030;-49
2023/04/19 05:05:33;;;;;;;51.60;28.75;;;9.60;99.90;;;;;;5010552;28;20025;-48
2023/04/19 05:08:00;;;;;;;49.03;28.60;;;9.60;99.90;;;;;;5010513;28;20025;-47
2023/04/19 05:10:25;;;;;;;46.70;29.33;;;9.50;99.90;;;;;;5010479;28;20457;-47
2023/04/19 05:12:51;;;;;;;45.22;27.40;;;9.60;99.90;;;;;;5010803;28;20034;-50
2023/04/19 05:15:16;;;;;;;44.70;28.08;;;9.60;99.90;;;;;;5010450;28;20026;-49
2023/04/19 05:17:42;;;;;;;49.78;28.33;;;9.60;99.90;;;;;;5010532;28;20042;-47
2023/04/19 05:20:08;;;;;;;46.75;27.52;;;9.60;99.90;;;;;;5010075;28;20026;-48
2023/04/19 05:22:34;;;;;;;47.65;28.77;;;9.60;99.90;;;;;;5010497;28;20584;-50
2023/04/19 05:25:01;;;;;;;49.47;27.17;;;9.60;99.90;;;;;;5010592;28;20034;-52
2023/04/19 05:27:26;;;;;;;43.95;27.65;;;9.70;99.90;;;;;;5010221;28;20033;-47
2023/04/19 05:29:52;;;;;;;44.65;28.17;;;9.70;99.90;;;;;;5010417;28;20025;-49
2023/04/19 05:32:18;;;;;;;42.60;26.95;;;9.70;99.90;;;;;;5009295;28;20033;-56
2023/04/19 05:34:43;;;;;;;45.45;27.30;;;9.70;99.90;;;;;;5010240;28;20072;-52
2023/04/19 05:37:09;;;;;;;44.25;26.63;;;9.70;99.90;;;;;;5010566;28;20083;-50
2023/04/19 05:39:35;;;;;;;44.03;25.92;;;9.70;99.90;;;;;;5010023;28;20076;-47
2023/04/19 05:42:00;;;;;;;45.13;26.38;;;9.80;99.90;;;;;;5010402;28;20033;-49
2023/04/19 05:44:26;;;;;;;42.05;26.27;;;9.80;99.90;;;;;;5010207;28;20026;-48
2023/04/19 05:46:51;;;;;;;45.53;26.65;;;9.80;99.90;;;;;;5010459;28;20022;-46
2023/04/19 05:49:17;;;;;;;41.63;26.17;;;9.80;99.90;;;;;;5009948;28;20075;-47
2023/04/19 05:51:43;;;;;;;41.78;26.38;;;9.90;99.90;;;;;;5011445;28;20363;-49
2023/04/19 05:54:11;;;;;;;45.67;26.85;;;9.90;99.90;;;;;;5012663;28;20037;-49
2023/04/19 05:56:37;;;;;;;43.97;26.30;;;10.00;99.90;;;;;;5013586;28;20070;-46
2023/04/19 05:59:03;;;;;;;39.50;25.42;;;10.00;99.90;;;;;;5013247;28;20060;-43
2023/04/19 06:01:29;;;;;;;40.50;26.00;;;10.10;99.90;;;;;;5013429;28;20022;-49
2023/04/19 06:03:54;;;;;;;37.60;25.08;;;10.10;99.90;;;;;;5013550;28;20461;-45
2023/04/19 06:06:23;;;;;;;42.40;25.50;;;10.20;99.90;;;;;;5013499;28;20098;-46
2023/04/19 06:08:49;;;;;;;38.75;24.95;;;10.30;99.90;;;;;;5000757;28;20164;-46
2023/04/19 06:11:15;;;;;;;42.83;25.25;;;10.40;99.90;;;;;;5012937;28;20548;-45
2023/04/19 06:13:40;;;;;;;39.33;24.80;;;10.50;99.90;;;;;;5013377;28;20109;-48
2023/04/19 06:16:07;;;;;;;42.40;23.92;;;10.60;99.90;;;;;;5013336;28;20156;-48
2023/04/19 06:18:33;;;;;;;38.30;24.95;;;10.80;99.90;;;;;;5013068;28;20057;-49
2023/04/19 06:20:58;;;;;;;39.85;25.05;;;10.90;99.90;;;;;;5013185;28;20120;-46
2023/04/19 06:23:25;;;;;;;41.45;24.63;;;11.00;99.90;;;;;;5013514;28;20029;-51
2023/04/19 06:25:51;;;;;;;38.17;23.90;;;11.00;99.90;;;;;;5013162;28;20401;-47
2023/04/19 06:28:17;;;;;;;37.05;23.50;;;11.10;99.90;;;;;;5014007;28;20029;-50
2023/04/19 06:30:44;;;;;;;36.97;23.33;;;11.20;99.90;;;;;;5013701;28;20052;-46
2023/04/19 06:33:10;;;;;;;37.17;23.67;;;11.40;99.90;;;;;;5013364;28;20028;-48
2023/04/19 06:35:36;;;;;;;33.03;22.02;;;11.90;99.90;;;;;;5012189;28;20121;-49
2023/04/19 06:38:02;;;;;;;33.53;21.80;;;12.70;99.90;;;;;;5012000;28;20072;-53
2023/04/19 06:40:28;;;;;;;31.52;21.95;;;13.30;99.90;;;;;;5012999;28;20030;-45
2023/04/19 06:42:54;;;;;;;34.05;21.73;;;13.70;99.90;;;;;;5012720;28;20022;-54
2023/04/19 06:45:20;;;;;;;31.10;21.30;;;14.20;99.90;;;;;;5012823;28;20034;-53
2023/04/19 06:47:45;;;;;;;29.63;21.55;;;14.60;99.90;;;;;;5012286;28;20029;-52
2023/04/19 06:50:12;;;;;;;29.27;20.90;;;15.00;99.90;;;;;;5012933;28;20025;-47
2023/04/19 06:52:38;;;;;;;28.58;19.95;;;15.40;99.90;;;;;;5011401;28;20421;-53
2023/04/19 06:55:05;;;;;;;29.15;20.13;;;15.60;99.90;;;;;;5012974;28;20041;-50
2023/04/19 06:57:31;;;;;;;30.30;19.73;;;16.20;99.90;;;;;;5012677;28;20049;-52
2023/04/19 06:59:57;;;;;;;28.45;19.85;;;16.50;99.90;;;;;;5012511;28;20073;-50
2023/04/19 07:02:23;;;;;;;27.35;19.23;;;17.00;99.70;;;;;;5012216;28;20034;-48
2023/04/19 07:04:49;;;;;;;27.40;19.60;;;17.40;96.70;;;;;;5012685;28;20041;-52
2023/04/19 07:07:15;;;;;;;25.58;18.65;;;17.30;95.00;;;;;;5012818;28;20029;-51
2023/04/19 07:09:41;;;;;;;25.48;19.20;;;17.80;95.40;;;;;;5012054;28;20434;-50
2023/04/19 07:12:06;;;;;;;25.10;19.02;;;17.50;93.10;;;;;;5010608;28;20541;-49
2023/04/19 07:14:32;;;;;;;25.70;18.60;;;17.50;93.80;;;;;;5012614;28;20040;-45
2023/04/19 07:16:58;;;;;;;28.15;19.48;;;17.50;93.20;;;;;;5011859;28;20445;-51
2023/04/19 07:19:24;;;;;;;24.52;18.15;;;18.10;91.50;;;;;;5012012;28;20412;-55
2023/04/19 07:21:50;;;;;;;26.48;18.45;;;18.60;90.90;;;;;;5012186;28;20378;-45
2023/04/19 07:24:16;;;;;;;25.55;18.27;;;19.00;86.90;;;;;;5011827;28;20034;-56
2023/04/19 07:26:42;;;;;;;25.27;19.13;;;18.70;86.20;;;;;;5012252;28;20446;-51
2023/04/19 07:29:07;;;;;;;24.75;17.80;;;18.80;85.70;;;;;;5011880;28;20034;-47
2023/04/19 07:31:33;;;;;;;24.15;17.13;;;19.00;88.80;;;;;;5011790;28;20034;-45
2023/04/19 07:33:59;;;;;;;24.15;18.02;;;19.10;84.50;;;;;;5006394;28;20592;-45
2023/04/19 07:36:24;;;;;;;22.63;18.70;;;19.00;84.10;;;;;;5006657;28;20157;-47
2023/04/19 07:38:50;;;;;;;24.83;17.58;;;18.50;83.10;;;;;;5008610;28;20403;-45
2023/04/19 07:41:17;;;;;;;25.23;17.75;;;18.90;84.00;;;;;;5011907;28;20049;-47
2023/04/19 07:43:42;;;;;;;21.95;17.77;;;19.40;82.80;;;;;;5011930;28;20028;-45
2023/04/19 07:46:10;;;;;;;19.77;16.65;;;20.30;81.10;;;;;;5010447;28;20038;-45
2023/04/19 07:48:36;;;;;;;22.80;16.30;;;20.60;75.00;;;;;;5011655;28;20025;-51
2023/04/19 07:51:15;;;;;;;21.27;16.90;;;20.10;76.00;;;;;;5011377;28;20080;-46
2023/04/19 07:53:42;;;;;;;20.30;15.25;;;19.70;77.20;;;;;;5011774;28;20026;-49
2023/04/19 07:56:09;;;;;;;21.08;14.88;;;20.00;75.80;;;;;;5011428;28;20400;-47
2023/04/19 07:58:35;;;;;;;19.00;14.75;;;20.50;78.00;;;;;;5011459;28;20505;-47
2023/04/19 08:01:01;;;;;;;19.63;15.40;;;20.50;74.00;;;;;;5011607;28;20025;-45
2023/04/19 08:03:27;;;;;;;17.25;14.43;;;20.60;73.70;;;;;;5011600;28;20038;-47
2023/04/19 08:05:53;;;;;;;21.63;14.68;;;21.80;74.40;;;;;;5009743;28;20030;-48
2023/04/19 08:08:19;;;;;;;18.88;14.98;;;22.10;68.00;;;;;;5011263;28;20381;-50
2023/04/19 08:10:45;;;;;;;17.98;14.05;;;21.30;67.90;;;;;;5011010;28;20152;-49
2023/04/19 08:13:10;;;;;;;16.17;13.65;;;21.40;70.30;;;;;;5011353;28;20025;-52
2023/04/19 08:15:36;;;;;;;16.83;13.45;;;22.00;66.90;;;;;;5010582;28;20025;-46
2023/04/19 08:18:03;;;;;;;16.30;14.02;;;22.70;69.10;;;;;;5004960;28;20104;-48
2023/04/19 08:20:30;;;;;;;19.38;13.43;;;23.10;65.10;;;;;;5011046;28;21334;-49
2023/04/19 08:22:56;;;;;;;17.45;13.60;;;23.20;65.70;;;;;;5008953;28;20389;-48
2023/04/19 08:25:25;;;;;;;14.63;12.77;;;23.40;63.40;;;;;;5018319;28;20033;-49
2023/04/19 08:27:51;;;;;;;14.15;12.23;;;23.60;63.00;;;;;;5013911;28;20022;-47
2023/04/19 08:30:17;;;;;;;17.20;12.68;;;22.90;62.10;;;;;;5010545;28;20569;-47
2023/04/19 08:32:42;;;;;;;16.05;13.48;;;22.50;64.00;;;;;;5010927;28;20378;-49
2023/04/19 08:35:08;;;;;;;16.33;12.85;;;23.00;62.50;;;;;;5011054;28;20034;-47
2023/04/19 08:37:34;;;;;;;17.63;13.02;;;22.50;62.40;;;;;;5007094;28;20501;-45
2023/04/19 08:40:00;;;;;;;15.32;13.23;;;23.00;62.60;;;;;;5010646;28;20036;-48
2023/04/19 08:42:25;;;;;;;15.75;13.30;;;22.90;62.60;;;;;;5010246;28;20030;-49
2023/04/19 08:44:53;;;;;;;17.15;13.55;;;22.60;62.80;;;;;;5010762;28;20385;-49
2023/04/19 08:47:20;;;;;;;16.60;13.57;;;22.00;63.20;;;;;;5011082;28;20108;-51
2023/04/19 08:49:47;;;;;;;18.27;13.00;;;22.30;62.90;;;;;;5009241;28;20080;-53
2023/04/19 08:52:13;;;;;;;15.80;13.20;;;22.30;62.60;;;;;;5010613;28;20330;-49
2023/04/19 08:54:40;;;;;;;16.17;12.93;;;22.90;62.00;;;;;;5010590;28;20022;-54
2023/04/19 08:57:07;;;;;;;14.10;11.60;;;23.20;60.80;;;;;;5010828;28;20065;-59
2023/04/19 08:59:34;;;;;;;16.52;11.55;;;22.80;61.20;;;;;;5010502;28;20115;-56
2023/04/19 09:02:00;;;;;;;15.32;12.05;;;22.90;60.60;;;;;;5010478;28;20026;-58
2023/04/19 09:04:30;;;;;;;17.17;12.68;;;22.50;62.20;;;;;;5009370;28;20038;-53
2023/04/19 09:06:55;;;;;;;;;;;22.60;61.30;;;;;;5009969;28;20022;-53
2023/04/19 09:09:27;;;;;;;17.50;12.25;;;21.80;65.10;;;;;;5010037;28;19914;-55
2023/04/19 09:11:53;;;;;;;16.65;12.32;;;21.50;63.60;;;;;;5010276;28;20033;-58
2023/04/19 09:14:20;;;;;;;13.80;12.07;;;21.50;65.20;;;;;;5010567;28;20018;-54
2023/04/19 09:16:47;;;;;;;13.88;11.50;;;22.20;65.40;;;;;;5010466;28;20026;-51
2023/04/19 09:19:15;;;;;;;15.95;11.73;;;23.10;65.30;;;;;;5010548;28;20037;-55
2023/04/19 09:21:41;;;;;;;14.88;10.82;;;23.20;60.30;;;;;;5008855;28;20492;-50
2023/04/19 09:24:07;;;;;;;16.98;11.50;;;23.80;58.30;;;;;;5010312;28;20041;-53
2023/04/19 09:26:33;;;;;;;16.70;11.75;;;23.30;58.60;;;;;;5011183;28;20034;-54
2023/04/19 09:29:01;;;;;;;13.75;11.68;;;22.30;60.80;;;;;;5014295;28;20319;-56
2023/04/19 09:31:28;;;;;;;15.60;11.70;;;21.30;65.50;;;;;;5014494;28;20026;-56
2023/04/19 09:33:54;;;;;;;13.48;11.27;;;21.00;64.50;;;;;;5014444;28;20036;-53
2023/04/19 09:36:31;;;;;;;14.57;11.75;;;20.50;66.90;;;;;;5014337;28;20108;-56
2023/04/19 09:38:58;;;;;;;14.38;12.07;;;20.00;67.00;;;;;;5006109;28;20085;-53
2023/04/19 09:41:25;;;;;;;16.05;12.93;;;19.90;68.70;;;;;;4999672;28;20034;-56
2023/04/19 09:43:51;;;;;;;14.63;12.02;;;19.10;69.00;;;;;;5002419;28;20029;-55
2023/04/19 09:46:35;;;;;;;18.17;13.23;;;19.20;71.60;;;;;;5012498;28;20036;-54
2023/04/19 09:49:12;;;;;;;21.40;12.40;;;18.30;72.80;;;;;;5002596;28;20041;-51
2023/04/19 09:51:42;;;;;;;16.50;11.85;;;18.10;75.80;;;;;;5011516;28;20037;-52
2023/04/19 09:54:10;;;;;;;15.65;12.27;;;18.30;74.10;;;;;;5005847;28;20033;-53
2023/04/19 09:56:36;;;;;;;17.23;12.98;;;18.00;74.30;;;;;;5007800;28;20032;-58
2023/04/19 09:59:03;;;;;;;15.18;11.75;;;18.30;75.50;;;;;;5003408;28;20124;-52
2023/04/19 10:01:34;;;;;;;15.25;11.90;;;18.30;76.80;;;;;;5002311;28;20034;-55
2023/04/19 10:04:03;;;;;;;15.80;11.02;;;18.50;72.50;;;;;;5010188;28;20049;-52
2023/04/19 10:06:28;;;;;;;14.23;10.47;;;19.20;72.30;;;;;;5005581;28;20030;-58
2023/04/19 10:08:56;;;;;;;14.43;11.25;;;18.60;70.40;;;;;;5021096;28;20033;-52
2023/04/19 10:11:25;;;;;;;16.27;11.35;;;18.40;72.10;;;;;;5005397;28;20025;-52
2023/04/19 10:13:58;;;;;;;15.20;10.80;;;18.50;73.70;;;;;;5007264;28;20072;-52
2023/04/19 10:16:24;;;;;;;16.73;11.23;;;18.20;73.80;;;;;;5009124;28;20038;-56
2023/04/19 10:18:51;;;;;;;14.60;10.80;;;17.90;75.50;;;;;;5007655;28;20018;-51
2023/04/19 10:21:18;;;;;;;16.77;10.18;;;16.90;75.10;;;;;;5010065;28;20341;-56
2023/04/19 10:23:43;;;;;;;13.90;10.68;;;16.50;77.00;;;;;;4994367;28;20038;-55
2023/04/19 10:26:09;;;;;;;12.95;10.48;;;16.60;76.70;;;;;;5013213;28;20084;-55
2023/04/19 10:28:36;;;;;;;15.13;10.68;;;16.40;78.20;;;;;;5011093;28;20026;-55
2023/04/19 10:31:03;;;;;;;14.77;9.73;;;17.20;78.10;;;;;;5000205;28;20037;-52
2023/04/19 10:33:36;;;;;;;16.88;10.27;;;17.70;74.90;;;;;;5014411;28;20410;-51
2023/04/19 10:36:02;;;;;;;14.60;9.13;;;17.90;74.10;;;;;;5021982;28;20026;-50
2023/04/19 10:38:36;;;;;;;11.85;8.95;;;18.20;73.50;;;;;;5015072;28;20226;-54
2023/04/19 10:41:02;;;;;;;12.05;8.55;;;18.60;73.10;;;;;;5019779;28;20053;-54
2023/04/19 10:43:28;;;;;;;12.82;9.55;;;18.20;71.80;;;;;;5020746;28;20362;-56
2023/04/19 10:45:57;;;;;;;14.90;9.50;;;17.70;73.30;;;;;;5016842;28;20041;-56
2023/04/19 10:48:36;;;;;;;10.15;6.88;;;17.30;74.10;;;;;;5014841;28;20025;-57
2023/04/19 10:51:14;;;;;;;10.68;7.10;;;16.70;73.00;;;;;;5011438;28;20172;-50
2023/04/19 10:53:54;;;;;;;10.38;7.30;;;16.40;75.60;;;;;;5006371;28;20492;-50
2023/04/19 10:57:01;;;;;;;10.27;7.60;;;16.50;75.20;;;;;;5013339;28;20489;-50
2023/04/19 10:59:30;;;;;;;11.45;7.85;;;16.20;76.40;;;;;;5003346;28;20492;-55
2023/04/19 11:01:58;;;;;;;11.10;7.65;;;16.30;76.20;;;;;;5004956;28;20031;-54
2023/04/19 11:04:30;;;;;;;12.32;8.50;;;16.40;77.00;;;;;;5004741;28;20048;-53
2023/04/19 11:07:01;;;;;;;11.40;7.13;;;16.50;76.70;;;;;;5009116;28;20053;-54
2023/04/19 11:09:44;;;;;;;10.18;7.15;;;16.40;75.60;;;;;;5011264;28;20030;-53
2023/04/19 11:12:18;;;;;;;11.30;7.78;;;16.20;76.50;;;;;;5012149;28;20029;-55
2023/04/19 11:14:53;;;;;;;11.75;7.38;;;16.10;75.70;;;;;;5012287;28;20503;-55
2023/04/19 11:17:27;;;;;;;11.75;6.95;;;16.40;77.00;;;;;;5000613;28;20069;-55
2023/04/19 11:19:57;;;;;;;10.55;7.10;;;16.70;77.10;;;;;;5006533;28;20440;-55
2023/04/19 11:22:30;;;;;;;12.15;8.52;;;17.10;75.00;;;;;;5010172;28;20524;-57
2023/04/19 11:24:55;;;;;;;11.15;8.45;;;17.10;75.80;;;;;;5010149;28;20571;-54
2023/04/19 11:27:21;;;;;;;11.25;8.02;;;16.80;77.30;;;;;;5009988;28;20117;-53
2023/04/19 11:29:47;;;;;;;10.85;7.68;;;16.90;78.00;;;;;;5010174;28;20485;-51
2023/04/19 11:32:13;;;;;;;10.75;7.68;;;17.10;78.20;;;;;;5001363;28;20065;-52
2023/04/19 11:34:39;;;;;;;11.23;7.38;;;17.10;77.40;;;;;;5003290;28;20034;-53
2023/04/19 11:37:05;;;;;;;9.52;6.43;;;17.50;77.40;;;;;;5008041;28;20029;-49
2023/04/19 11:39:31;;;;;;;8.32;6.30;;;19.20;73.30;;;;;;5004266;28;20648;-51
2023/04/19 11:41:57;;;;;;;9.77;5.57;;;19.90;69.10;;;;;;5005572;28;20029;-48
2023/04/19 11:44:23;;;;;;;12.75;5.57;;;20.00;67.90;;;;;;5003535;28;20040;-54
2023/04/19 11:46:59;;;;;;;9.23;5.75;;;19.00;68.80;;;;;;5007196;28;20029;-48
2023/04/19 11:49:30;;;;;;;9.63;5.53;;;18.10;70.80;;;;;;5008043;28;20050;-50
2023/04/19 11:52:00;;;;;;;9.60;5.80;;;18.50;70.50;;;;;;5011593;28;20477;-52
2023/04/19 11:54:26;;;;;;;8.90;5.75;;;19.10;71.00;;;;;;5008349;28;20481;-52
2023/04/19 11:56:58;;;;;;;9.20;5.60;;;20.70;66.30;;;;;;5011995;28;20079;-48
2023/04/19 11:59:23;;;;;;;9.88;6.20;;;22.00;67.10;;;;;;5005601;28;20226;-44
2023/04/19 12:01:49;;;;;;;8.32;5.95;;;22.00;61.90;;;;;;5005155;28;20060;-42
2023/04/19 12:04:15;;;;;;;9.23;5.82;;;21.60;64.60;;;;;;5002975;28;20030;-51
2023/04/19 12:06:41;;;;;;;8.10;5.97;;;21.60;64.20;;;;;;5003105;28;20050;-50
2023/04/19 12:09:08;;;;;;;8.48;6.72;;;20.40;64.10;;;;;;5007250;28;20076;-49
2023/04/19 12:11:45;;;;;;;10.00;6.43;;;19.70;66.50;;;;;;5010124;28;20252;-50
2023/04/19 12:14:17;;;;;;;8.13;5.88;;;20.90;67.90;;;;;;5008425;28;20077;-57
2023/04/19 12:16:46;;;;;;;8.68;6.28;;;22.40;63.90;;;;;;5011124;28;20393;-58
2023/04/19 12:19:19;;;;;;;10.05;6.40;;;22.70;61.30;;;;;;5011158;28;20493;-56
2023/04/19 12:21:45;;;;;;;12.77;7.65;;;23.50;60.90;;;;;;5011404;28;20111;-58
2023/04/19 12:24:14;;;;;;;13.82;9.23;;;23.60;62.90;;;;;;5010849;28;20034;-53
2023/04/19 12:26:54;;;;;;;11.10;7.55;;;22.80;60.90;;;;;;5011321;28;20026;-57
2023/04/19 12:29:20;;;;;;;10.70;8.32;;;21.80;63.70;;;;;;5011086;28;20028;-56
2023/04/19 12:31:45;;;;;;;12.68;8.35;;;21.40;66.50;;;;;;5006531;28;20022;-52